Time,TemperatureF,DewpointF,PressureIn,WindDirection,WindDirectionDegrees,WindSpeedMPH,WindSpeedGustMPH,Humidity,HourlyPrecipIn,Conditions,Clouds,dailyrainin,SolarRadiationWatts/m^2,SoftwareType,DateUTC
2013-07-24 00:01:00,63.0,63.0,-100.00,SSW,202,0.0,0.0,99,0.00,,,1.05,0.000000,,2013-07-24 04:01:00,
2013-07-24 00:43:00,64.0,64.0,-100.00,NW,318,5.0,12.0,99,0.11,,,1.00,0.000000,,2013-07-24 04:43:00,
2013-07-24 00:53:00,64.0,64.0,-100.00,NW,318,5.0,12.0,99,0.11,,,1.00,0.000000,,2013-07-24 04:53:00,
2013-07-24 01:02:00,64.0,64.0,-100.00,NW,318,5.0,12.0,99,0.11,,,1.00,0.000000,,2013-07-24 05:02:00,
2013-07-24 01:33:00,61.0,60.0,-100.00,WNW,290,3.0,10.0,97,0.00,,,0.98,0.000000,,2013-07-24 05:33:00,
2013-07-24 01:43:00,61.0,60.0,-100.00,WNW,290,3.0,10.0,97,0.00,,,0.98,0.000000,,2013-07-24 05:43:00,
2013-07-24 01:52:00,61.0,60.0,-100.00,WNW,290,3.0,10.0,97,0.00,,,0.98,0.000000,,2013-07-24 05:52:00,
2013-07-24 02:01:00,61.0,60.0,-100.00,WNW,290,3.0,10.0,97,0.00,,,0.98,0.000000,,2013-07-24 06:01:00,
2013-07-24 02:43:00,60.0,59.0,-100.00,WNW,299,2.0,8.0,95,0.00,,,0.94,0.000000,,2013-07-24 06:43:00,
2013-07-24 02:53:00,60.0,59.0,-100.00,WNW,299,2.0,8.0,95,0.00,,,0.94,0.000000,,2013-07-24 06:53:00,
2013-07-24 03:02:00,60.0,59.0,-100.00,WNW,299,2.0,8.0,95,0.00,,,0.94,0.000000,,2013-07-24 07:02:00,
2013-07-24 03:43:00,58.0,56.0,-100.00,WNW,300,3.0,11.0,94,0.00,,,0.90,0.000000,,2013-07-24 07:43:00,
2013-07-24 03:53:00,58.0,56.0,-100.00,WNW,300,3.0,11.0,94,0.00,,,0.90,0.000000,,2013-07-24 07:53:00,
2013-07-24 04:02:00,58.0,56.0,-100.00,WNW,300,3.0,11.0,94,0.00,,,0.90,0.000000,,2013-07-24 08:02:00,
2013-07-24 04:32:00,57.0,55.0,-100.00,NNW,337,3.0,7.0,93,0.00,,,0.88,0.000000,,2013-07-24 08:32:00,
2013-07-24 04:43:00,57.0,55.0,-100.00,NNW,337,3.0,7.0,93,0.00,,,0.88,0.000000,,2013-07-24 08:43:00,
2013-07-24 04:52:00,57.0,55.0,-100.00,NNW,337,3.0,7.0,93,0.00,,,0.88,0.000000,,2013-07-24 08:52:00,
2013-07-24 05:02:00,57.0,55.0,-100.00,NNW,337,3.0,7.0,93,0.00,,,0.88,0.000000,,2013-07-24 09:02:00,
2013-07-24 05:32:00,57.0,56.0,-100.00,NE,54,0.0,7.0,96,0.00,,,0.88,0.000000,,2013-07-24 09:32:00,
2013-07-24 05:43:00,57.0,56.0,-100.00,NE,54,0.0,7.0,96,0.00,,,0.88,0.000000,,2013-07-24 09:43:00,
2013-07-24 05:53:00,57.0,56.0,-100.00,NE,54,0.0,7.0,96,0.00,,,0.88,0.000000,,2013-07-24 09:53:00,
2013-07-24 06:02:00,57.0,56.0,-100.00,NE,54,0.0,7.0,96,0.00,,,0.88,0.000000,,2013-07-24 10:02:00,
2013-07-24 06:43:00,57.0,56.0,-100.00,NW,316,2.0,4.0,96,0.00,,,0.88,0.000000,,2013-07-24 10:43:00,
2013-07-24 06:53:00,57.0,56.0,-100.00,NW,316,2.0,4.0,96,0.00,,,0.88,0.000000,,2013-07-24 10:53:00,
2013-07-24 07:02:00,57.0,56.0,-100.00,NW,316,2.0,4.0,96,0.00,,,0.88,0.000000,,2013-07-24 11:02:00,
2013-07-24 07:44:00,58.0,56.0,-100.00,NW,316,4.0,9.0,92,0.00,,,0.88,15.000000,,2013-07-24 11:44:00,
2013-07-24 07:52:00,58.0,56.0,-100.00,NW,316,4.0,9.0,92,0.00,,,0.88,15.000000,,2013-07-24 11:52:00,
2013-07-24 08:02:00,58.0,56.0,-100.00,NW,316,4.0,9.0,92,0.00,,,0.88,15.000000,,2013-07-24 12:02:00,
2013-07-24 08:32:00,56.0,52.0,-100.00,NW,319,5.0,11.0,88,0.00,,,0.88,47.000000,,2013-07-24 12:32:00,
2013-07-24 08:42:00,56.0,52.0,-100.00,NW,319,5.0,11.0,88,0.00,,,0.88,47.000000,,2013-07-24 12:42:00,
2013-07-24 08:52:00,56.0,52.0,-100.00,NW,319,5.0,11.0,88,0.00,,,0.88,47.000000,,2013-07-24 12:52:00,
2013-07-24 09:02:00,56.0,52.0,-100.00,NW,319,5.0,11.0,88,0.00,,,0.88,47.000000,,2013-07-24 13:02:00,
2013-07-24 09:43:00,56.0,52.0,-100.00,NW,311,3.0,10.0,85,0.00,,,0.88,100.000000,,2013-07-24 13:43:00,
2013-07-24 09:53:00,56.0,52.0,-100.00,NW,311,3.0,10.0,85,0.00,,,0.88,100.000000,,2013-07-24 13:53:00,
2013-07-24 10:02:00,56.0,52.0,-100.00,NW,311,3.0,10.0,85,0.00,,,0.88,100.000000,,2013-07-24 14:02:00,
2013-07-24 10:32:00,58.0,53.0,-100.00,NW,312,3.0,9.0,83,0.00,,,0.88,132.000000,,2013-07-24 14:32:00,
2013-07-24 10:43:00,58.0,53.0,-100.00,NW,312,3.0,9.0,83,0.00,,,0.88,132.000000,,2013-07-24 14:43:00,
2013-07-24 10:55:00,58.0,53.0,-100.00,NW,312,3.0,9.0,83,0.00,,,0.88,132.000000,,2013-07-24 14:55:00,
2013-07-24 11:03:00,58.0,53.0,-100.00,NW,312,3.0,9.0,83,0.00,,,0.88,132.000000,,2013-07-24 15:03:00,
2013-07-24 11:33:00,61.0,53.0,-100.00,NW,317,4.0,10.0,74,0.00,,,0.88,315.000000,,2013-07-24 15:33:00,
2013-07-24 11:43:00,61.0,53.0,-100.00,NW,317,4.0,10.0,74,0.00,,,0.88,315.000000,,2013-07-24 15:43:00,
2013-07-24 11:53:00,61.0,53.0,-100.00,NW,317,4.0,10.0,74,0.00,,,0.88,315.000000,,2013-07-24 15:53:00,
2013-07-24 12:02:00,61.0,53.0,-100.00,NW,317,4.0,10.0,74,0.00,,,0.88,315.000000,,2013-07-24 16:02:00,
2013-07-24 12:33:00,62.0,53.0,-100.00,NNW,335,4.0,10.0,73,0.00,,,0.88,444.000000,,2013-07-24 16:33:00,
2013-07-24 12:43:00,62.0,53.0,-100.00,NNW,335,4.0,10.0,73,0.00,,,0.88,444.000000,,2013-07-24 16:43:00,
2013-07-24 12:53:00,62.0,53.0,-100.00,NNW,335,4.0,10.0,73,0.00,,,0.88,444.000000,,2013-07-24 16:53:00,
2013-07-24 13:03:00,62.0,53.0,-100.00,NNW,335,4.0,10.0,73,0.00,,,0.88,444.000000,,2013-07-24 17:03:00,
2013-07-24 13:33:00,62.0,52.0,-100.00,North,355,4.0,13.0,69,0.00,,,0.88,559.000000,,2013-07-24 17:33:00,
2013-07-24 13:43:00,62.0,52.0,-100.00,North,355,4.0,13.0,69,0.00,,,0.88,559.000000,,2013-07-24 17:43:00,
2013-07-24 13:53:00,62.0,52.0,-100.00,North,355,4.0,13.0,69,0.00,,,0.88,559.000000,,2013-07-24 17:53:00,
2013-07-24 14:03:00,62.0,52.0,-100.00,North,355,4.0,13.0,69,0.00,,,0.88,559.000000,,2013-07-24 18:03:00,
2013-07-24 14:33:00,65.0,52.0,-100.00,NNW,339,5.0,11.0,62,0.00,,,0.88,716.000000,,2013-07-24 18:33:00,
2013-07-24 14:43:00,65.0,52.0,-100.00,NNW,339,5.0,11.0,62,0.00,,,0.88,716.000000,,2013-07-24 18:43:00,
2013-07-24 14:52:00,65.0,52.0,-100.00,NNW,339,5.0,11.0,62,0.00,,,0.88,716.000000,,2013-07-24 18:52:00,
2013-07-24 15:03:00,65.0,52.0,-100.00,NNW,339,5.0,11.0,62,0.00,,,0.88,716.000000,,2013-07-24 19:03:00,
2013-07-24 15:33:00,69.0,54.0,-100.00,WNW,283,4.0,12.0,59,0.00,,,0.88,946.000000,,2013-07-24 19:33:00,
2013-07-24 15:43:00,69.0,54.0,-100.00,WNW,283,4.0,12.0,59,0.00,,,0.88,946.000000,,2013-07-24 19:43:00,
2013-07-24 15:53:00,69.0,54.0,-100.00,WNW,283,4.0,12.0,59,0.00,,,0.88,946.000000,,2013-07-24 19:53:00,
2013-07-24 16:03:00,69.0,54.0,-100.00,WNW,283,4.0,12.0,59,0.00,,,0.88,946.000000,,2013-07-24 20:03:00,
2013-07-24 16:33:00,69.0,54.0,-100.00,NW,308,4.0,14.0,59,0.00,,,0.88,970.000000,,2013-07-24 20:33:00,
2013-07-24 16:43:00,69.0,54.0,-100.00,NW,308,4.0,14.0,59,0.00,,,0.88,970.000000,,2013-07-24 20:43:00,
2013-07-24 16:53:00,69.0,54.0,-100.00,NW,308,4.0,14.0,59,0.00,,,0.88,970.000000,,2013-07-24 20:53:00,
2013-07-24 17:03:00,69.0,54.0,-100.00,NW,308,4.0,14.0,59,0.00,,,0.88,970.000000,,2013-07-24 21:03:00,
2013-07-24 17:32:00,70.0,55.0,-100.00,WNW,297,4.0,11.0,60,0.00,,,0.88,770.000000,,2013-07-24 21:32:00,
2013-07-24 17:44:00,70.0,55.0,-100.00,WNW,297,4.0,11.0,60,0.00,,,0.88,770.000000,,2013-07-24 21:44:00,
2013-07-24 17:53:00,70.0,55.0,-100.00,WNW,297,4.0,11.0,60,0.00,,,0.88,770.000000,,2013-07-24 21:53:00,
2013-07-24 18:02:00,70.0,55.0,-100.00,WNW,297,4.0,11.0,60,0.00,,,0.88,770.000000,,2013-07-24 22:02:00,
2013-07-24 18:43:00,66.0,52.0,-100.00,NW,305,5.0,11.0,61,0.00,,,0.15,528.000000,,2013-07-24 22:43:00,
2013-07-24 18:53:00,66.0,52.0,-100.00,NW,305,5.0,11.0,61,0.00,,,0.15,528.000000,,2013-07-24 22:53:00,
2013-07-24 19:02:00,66.0,52.0,-100.00,NW,305,5.0,11.0,61,0.00,,,0.15,528.000000,,2013-07-24 23:02:00,
2013-07-24 19:43:00,67.0,53.0,-100.00,WNW,299,4.0,12.0,61,0.00,,,0.11,387.000000,,2013-07-24 23:43:00,
2013-07-24 19:52:00,67.0,53.0,-100.00,WNW,299,4.0,12.0,61,0.00,,,0.11,387.000000,,2013-07-24 23:52:00,
2013-07-24 20:02:00,67.0,53.0,-100.00,WNW,299,4.0,12.0,61,0.00,,,0.11,387.000000,,2013-07-25 00:02:00,
2013-07-24 20:33:00,59.0,51.0,-100.00,NW,312,2.0,9.0,76,0.00,,,0.11,132.000000,,2013-07-25 00:33:00,
2013-07-24 20:43:00,59.0,51.0,-100.00,NW,312,2.0,9.0,76,0.00,,,0.11,132.000000,,2013-07-25 00:43:00,
2013-07-24 20:53:00,59.0,51.0,-100.00,NW,312,2.0,9.0,76,0.00,,,0.11,132.000000,,2013-07-25 00:53:00,
2013-07-24 21:03:00,59.0,51.0,-100.00,NW,312,2.0,9.0,76,0.00,,,0.11,132.000000,,2013-07-25 01:03:00,
2013-07-24 21:32:00,55.0,50.0,-100.00,East,85,0.0,5.0,83,0.00,,,0.11,9.000000,,2013-07-25 01:32:00,
2013-07-24 21:43:00,55.0,50.0,-100.00,East,85,0.0,5.0,83,0.00,,,0.11,9.000000,,2013-07-25 01:43:00,
2013-07-24 21:53:00,55.0,50.0,-100.00,East,85,0.0,5.0,83,0.00,,,0.11,9.000000,,2013-07-25 01:53:00,
2013-07-24 22:02:00,55.0,50.0,-100.00,East,85,0.0,5.0,83,0.00,,,0.11,9.000000,,2013-07-25 02:02:00,
2013-07-24 22:43:00,51.0,49.0,-100.00,South,189,0.0,2.0,93,0.00,,,0.11,0.000000,,2013-07-25 02:43:00,
2013-07-24 22:53:00,51.0,49.0,-100.00,South,189,0.0,2.0,93,0.00,,,0.11,0.000000,,2013-07-25 02:53:00,
2013-07-24 23:02:00,51.0,49.0,-100.00,South,189,0.0,2.0,93,0.00,,,0.11,0.000000,,2013-07-25 03:02:00,
2013-07-24 23:45:00,49.0,48.0,-100.00,SSW,194,0.0,0.0,97,0.00,,,0.11,0.000000,,2013-07-25 03:45:00,
2013-07-24 23:53:00,49.0,48.0,-100.00,SSW,194,0.0,0.0,97,0.00,,,0.11,0.000000,,2013-07-25 03:53:00,